Archbald, Pennsylvania
Current Conditions -  °F | °C
As of 5:54 PM on Thursday 27 Nov 2014 (Local Time) from KAVP Reporting Station
Clear Clear  
Wind Chill: 21°   Ceiling: Unl
Heat Index: 30°   Visibility: 10mi
Dew Point: 21°   Wind: 10mph
Humidity: 69%   Direction: 290°WNW
Pressure: 30.03"   Gusts: NA
Location:  41.51°N, 75.56°W
Report Text: KAVP 272254Z 29009KT 10SM CLR M01/M06 A3003 RMK AO2 SLP178 T10111061
Loading
Personal Weather Stations






























Interactive Weather Map New forecast layout! Learn more

10-Day Weather Forecast

Advertisements
Track Severe Weather on mobile